Time;durP1;ratioP1;P1;durP2;ratioP2;P2;SDS_P1;SDS_P2;PMS_P1;PMS_P2;Temp;Humidity;BMP_temperature;BMP_pressure;BME280_temperature;BME280_humidity;BME280_pressure;Samples;Min_cycle;Max_cycle;Signal;HPM_P1;HPM_P2
2023/03/28 00:00:28;;;;;;;9.43;1.30;;;;;;;-148.88;94.67;77691.09;5061226;28;20020;-77
2023/03/28 00:02:53;;;;;;;9.63;1.48;;;;;;;-148.88;94.97;77693.13;5079356;28;20029;-77
2023/03/28 00:05:20;;;;;;;6.82;1.58;;;;;;;-148.88;95.09;77699.22;5076917;28;20029;-77
2023/03/28 00:07:46;;;;;;;9.68;1.40;;;;;;;-148.88;95.13;77697.19;5057840;28;20437;-77
2023/03/28 00:10:11;;;;;;;9.77;1.30;;;;;;;-148.88;95.23;77699.22;5080329;28;20479;-78
2023/03/28 00:12:36;;;;;;;6.85;1.45;;;;;;;-148.88;94.81;77687.03;5082480;28;20491;-78
2023/03/28 00:15:03;;;;;;;8.15;1.00;;;;;;;-148.88;94.89;77711.41;5077487;28;20020;-77
2023/03/28 00:17:29;;;;;;;15.82;1.50;;;;;;;-148.88;95.50;77717.50;5059400;28;20041;-77
2023/03/28 00:19:55;;;;;;;10.75;1.30;;;;;;;-148.88;95.89;77729.69;5077519;28;20024;-77
2023/03/28 00:22:21;;;;;;;6.57;1.38;;;;;;;-148.88;95.96;77711.41;5060979;28;20012;-77
2023/03/28 00:24:47;;;;;;;8.45;1.65;;;;;;;-148.88;95.58;77715.47;5060588;28;20032;-77
2023/03/28 00:27:14;;;;;;;7.50;1.30;;;;;;;-148.88;94.93;77707.34;5060899;28;20111;-77
2023/03/28 00:29:39;;;;;;;8.13;1.42;;;;;;;-148.88;94.78;77695.16;5060971;28;20024;-77
2023/03/28 00:32:05;;;;;;;8.13;1.83;;;;;;;-148.88;95.31;77719.53;5078541;28;20039;-77
2023/03/28 00:34:30;;;;;;;8.45;1.88;;;;;;;-148.88;95.50;77725.63;5078446;28;20033;-77
2023/03/28 00:36:55;;;;;;;5.85;1.23;;;;;;;-148.88;95.54;77727.66;5078343;28;20021;-77
2023/03/28 00:39:22;;;;;;;8.23;1.55;;;;;;;-148.88;96.32;77731.72;5077940;28;20047;-77
2023/03/28 00:41:48;;;;;;;11.27;1.38;;;;;;;-148.88;96.23;77731.72;5078133;28;20207;-78
2023/03/28 00:44:52;;;;;;;14.00;1.40;;;;;;;-148.88;95.96;77719.53;5077858;28;20024;-77
2023/03/28 00:47:26;;;;;;;10.13;2.40;;;;;;;-148.88;96.52;77735.78;5059846;28;20575;-77
2023/03/28 00:50:09;;;;;;;10.00;1.25;;;;;;;-148.88;97.46;77741.88;5079507;28;20031;-78
2023/03/28 00:52:41;;;;;;;15.55;1.35;;;;;;;-148.88;97.27;77735.78;5063084;28;20024;-78
2023/03/28 00:55:14;;;;;;;9.20;1.70;;;;;;;-148.88;97.55;77748.00;5079598;28;20025;-78
2023/03/28 00:57:40;;;;;;;9.18;1.55;;;;;;;-148.88;96.58;77727.66;5079765;28;20104;-77
2023/03/28 01:00:11;;;;;;;9.63;2.05;;;;;;;-148.88;96.20;77731.72;5079759;28;20021;-77
2023/03/28 01:02:39;;;;;;;6.65;1.20;;;;;;;-148.88;96.22;77735.78;5079123;28;20096;-77
2023/03/28 01:05:04;;;;;;;5.88;1.52;;;;;;;-148.88;97.15;77750.03;5078719;28;20033;-77
2023/03/28 01:07:36;;;;;;;9.30;1.13;;;;;;;-148.88;97.00;77750.03;5079703;28;20025;-78
2023/03/28 01:10:03;;;;;;;4.95;1.20;;;;;;;-148.88;97.15;77752.06;5061329;28;20028;-78
2023/03/28 01:12:28;;;;;;;5.78;1.33;;;;;;;-148.88;98.06;77770.34;5079316;28;20028;-78
2023/03/28 01:14:54;;;;;;;9.77;2.20;;;;;;;-148.88;97.83;77772.38;5079616;28;20028;-77
2023/03/28 01:17:20;;;;;;;8.90;1.38;;;;;;;-148.88;98.02;77776.44;5079856;28;20031;-77
2023/03/28 01:19:57;;;;;;;10.00;1.85;;;;;;;-148.88;97.99;77780.50;5078506;28;20023;-77
2023/03/28 01:22:50;;;;;;;7.47;1.35;;;;;;;-148.88;98.20;77788.63;5080112;28;20479;-78
2023/03/28 01:26:02;;;;;;;7.13;1.25;;;;;;;-148.88;98.20;77782.53;5062947;28;20028;-77
2023/03/28 01:28:46;;;;;;;4.97;1.02;;;;;;;-148.88;97.30;77764.25;5003999;28;20078;-77
2023/03/28 01:31:27;;;;;;;5.28;0.93;;;;;;;-148.88;97.06;77768.31;5062248;28;20047;-77
2023/03/28 01:34:02;;;;;;;12.20;1.20;;;;;;;-148.88;96.42;77754.09;5080445;28;20076;-77
2023/03/28 01:36:56;;;;;;;8.30;1.35;;;;;;;-148.88;96.06;77760.19;5080588;28;20066;-77
2023/03/28 01:39:59;;;;;;;11.73;2.20;;;;;;;-148.88;96.48;77760.19;5080305;28;20032;-77
2023/03/28 01:42:50;;;;;;;8.60;1.42;;;;;;;-148.88;96.76;77752.06;5063546;28;20135;-77
2023/03/28 01:45:21;;;;;;;12.40;1.55;;;;;;;-148.88;96.05;77756.13;5081460;28;20027;-77
2023/03/28 01:48:16;;;;;;;13.95;1.60;;;;;;;-148.88;96.43;77762.22;5062829;28;20123;-78
2023/03/28 01:50:49;;;;;;;6.13;1.02;;;;;;;-148.88;95.46;77752.06;5082890;28;20054;-78
2023/03/28 01:53:21;;;;;;;10.73;1.50;;;;;;;-148.88;96.63;77780.50;5084177;28;20024;-77
2023/03/28 01:55:57;;;;;;;13.20;1.30;;;;;;;-148.88;95.64;77758.16;5060161;28;20123;-77
2023/03/28 01:58:47;;;;;;;8.25;1.30;;;;;;;-148.88;95.24;77743.94;5061500;28;20490;-77
2023/03/28 02:01:40;;;;;;;6.93;1.40;;;;;;;-148.88;95.57;77762.22;5079890;28;20028;-77
2023/03/28 02:04:10;;;;;;;3.15;1.20;;;;;;;-148.88;96.46;77790.66;5079360;28;20538;-77
2023/03/28 02:06:38;;;;;;;8.77;1.83;;;;;;;-148.88;96.35;77806.94;5079571;28;20074;-77
2023/03/28 02:09:06;;;;;;;7.22;1.27;;;;;;;-148.88;97.33;77815.06;5079864;28;20020;-77
2023/03/28 02:11:34;;;;;;;9.70;1.52;;;;;;;-148.88;97.62;77813.03;5061926;28;20043;-77
2023/03/28 02:14:05;;;;;;;6.30;1.30;;;;;;;-148.88;97.39;77813.03;5079669;28;20044;-77
2023/03/28 02:16:35;;;;;;;7.93;1.23;;;;;;;-148.88;97.20;77825.22;5079859;28;20083;-77
2023/03/28 02:19:02;;;;;;;10.45;1.40;;;;;;;-148.88;97.22;77821.16;5079543;28;20024;-77
2023/03/28 02:21:43;;;;;;;21.73;1.83;;;;;;;-148.88;97.32;77827.25;5080331;28;20383;-77
2023/03/28 02:24:11;;;;;;;7.60;1.05;;;;;;;-148.88;97.25;77827.25;5081724;28;20020;-77
2023/03/28 02:26:36;;;;;;;6.35;1.23;;;;;;;-148.88;97.00;77817.09;5082554;28;20070;-77
2023/03/28 02:29:03;;;;;;;9.60;1.40;;;;;;;-148.88;97.13;77821.16;5082205;28;20024;-78
2023/03/28 02:31:28;;;;;;;7.15;1.48;;;;;;;-148.88;97.00;77806.94;5082565;28;20029;-77
2023/03/28 02:33:55;;;;;;;8.55;1.33;;;;;;;-148.88;96.15;77804.88;5061708;28;20017;-77
2023/03/28 02:36:42;;;;;;;11.30;1.45;;;;;;;-148.88;96.28;77808.97;5079918;28;20028;-77
2023/03/28 02:39:25;;;;;;;11.35;1.52;;;;;;;-148.88;96.21;77800.81;5063165;28;20028;-77
2023/03/28 02:42:00;;;;;;;;;;;;;;;-148.88;96.57;77813.03;5081125;28;20020;-77
2023/03/28 02:44:50;;;;;;;12.70;1.67;;;;;;;-148.88;95.79;77798.78;5080396;28;19920;-77
2023/03/28 02:47:40;;;;;;;7.15;1.58;;;;;;;-148.88;96.01;77792.69;5080922;28;20502;-77
2023/03/28 02:50:19;;;;;;;7.35;1.73;;;;;;;-148.88;96.08;77813.03;5081066;28;20024;-78
2023/03/28 02:53:02;;;;;;;4.93;1.30;;;;;;;-148.88;95.78;77806.94;5080490;28;20081;-77
2023/03/28 02:55:53;;;;;;;3.20;0.70;;;;;;;-148.88;95.94;77802.84;5079635;28;20035;-78
2023/03/28 02:58:33;;;;;;;13.75;1.48;;;;;;;-148.88;96.72;77825.22;5073294;28;20107;-77
2023/03/28 03:01:01;;;;;;;13.32;1.90;;;;;;;-148.88;96.22;77817.09;5063511;28;20078;-78
2023/03/28 03:03:27;;;;;;;3.95;1.00;;;;;;;-148.88;96.20;77813.03;5062362;28;20471;-78
2023/03/28 03:05:52;;;;;;;6.60;1.10;;;;;;;-148.88;95.55;77802.84;5063455;28;20058;-78
2023/03/28 03:08:18;;;;;;;8.32;1.17;;;;;;;-148.88;96.16;77817.09;5076724;28;20020;-77
2023/03/28 03:10:43;;;;;;;4.28;1.23;;;;;;;-148.88;95.48;77813.03;5077195;28;20080;-77
2023/03/28 03:13:08;;;;;;;7.43;1.80;;;;;;;-148.88;96.47;77833.34;5077424;28;20028;-77
2023/03/28 03:15:34;;;;;;;10.20;1.35;;;;;;;-148.88;95.91;77821.16;5078368;28;20051;-77
2023/03/28 03:18:00;;;;;;;9.13;1.63;;;;;;;-148.88;95.25;77827.25;5077722;28;20052;-77
2023/03/28 03:20:32;;;;;;;4.50;1.50;;;;;;;-148.88;96.65;77855.69;5078329;28;20024;-77
2023/03/28 03:22:59;;;;;;;8.63;1.25;;;;;;;-148.88;96.23;77853.66;5061338;28;20540;-78
2023/03/28 03:25:25;;;;;;;7.05;1.75;;;;;;;-148.88;96.30;77855.69;5060920;28;20028;-77
2023/03/28 03:27:50;;;;;;;5.57;1.42;;;;;;;-148.88;96.85;77859.75;5061104;28;20017;-77
2023/03/28 03:30:16;;;;;;;6.53;1.02;;;;;;;-148.88;95.77;77859.75;5079303;28;20539;-77
2023/03/28 03:32:42;;;;;;;6.68;1.17;;;;;;;-148.88;96.13;77863.81;5079437;28;20115;-78
2023/03/28 03:35:08;;;;;;;4.60;1.42;;;;;;;-148.88;96.37;77869.94;5082459;28;20209;-78
2023/03/28 03:37:34;;;;;;;5.35;1.00;;;;;;;-148.88;96.42;77857.72;5063917;28;20138;-78
2023/03/28 03:39:59;;;;;;;8.90;2.35;;;;;;;-148.88;96.11;77863.81;5082548;28;20035;-78
2023/03/28 03:42:26;;;;;;;4.03;1.00;;;;;;;-148.88;96.07;77884.16;5064736;28;20054;-77
2023/03/28 03:44:53;;;;;;;4.35;1.58;;;;;;;-148.88;97.26;77886.19;5076707;28;20052;-79
2023/03/28 03:47:18;;;;;;;8.68;1.13;;;;;;;-148.88;96.03;77874.00;5077987;28;20450;-78
2023/03/28 03:49:46;;;;;;;5.97;1.70;;;;;;;-148.88;96.72;77896.34;5079732;28;20024;-78
2023/03/28 03:52:12;;;;;;;10.38;2.22;;;;;;;-148.88;96.35;77886.19;5080096;28;20028;-79
2023/03/28 03:54:39;;;;;;;5.32;1.20;;;;;;;-148.88;97.39;77898.38;5063002;28;20051;-79
2023/03/28 03:57:04;;;;;;;5.95;1.17;;;;;;;-148.88;97.05;77890.25;5081432;28;20058;-79
2023/03/28 03:59:30;;;;;;;15.32;1.60;;;;;;;-148.88;96.26;77882.13;5061574;28;20028;-78
2023/03/28 04:01:56;;;;;;;10.20;1.63;;;;;;;-148.88;95.85;77878.06;5081048;28;20024;-79
2023/03/28 04:04:22;;;;;;;8.70;1.00;;;;;;;-148.88;96.84;77906.50;5064217;28;20052;-79
2023/03/28 04:06:47;;;;;;;8.80;1.65;;;;;;;-148.88;97.40;77896.34;5066293;28;20028;-80
2023/03/28 04:09:13;;;;;;;6.85;1.33;;;;;;;-148.88;95.78;77878.06;5066123;28;20028;-79
2023/03/28 04:15:00;;;;;;;10.82;1.63;;;;;;;-148.88;95.54;77894.31;5082521;28;20055;-79
2023/03/28 04:17:27;;;;;;;10.07;1.25;;;;;;;-148.88;96.70;77916.66;5064217;28;20029;-79
2023/03/28 04:19:54;;;;;;;11.07;2.08;;;;;;;-148.88;96.46;77916.66;5061141;28;20031;-79
2023/03/28 04:22:21;;;;;;;5.20;1.42;;;;;;;-148.88;96.35;77904.47;5074753;28;20158;-79
2023/03/28 04:24:48;;;;;;;4.97;1.48;;;;;;;-148.88;95.80;77910.56;5076454;28;20107;-79
2023/03/28 04:27:16;;;;;;;6.70;1.35;;;;;;;-148.88;96.23;77914.63;5076798;28;20445;-79
2023/03/28 04:29:43;;;;;;;8.77;1.52;;;;;;;-148.88;96.63;77934.97;5045178;28;20031;-79
2023/03/28 04:32:11;;;;;;;4.18;1.10;;;;;;;-148.88;96.84;77947.16;5064745;28;20114;-81
2023/03/28 04:34:36;;;;;;;9.90;1.15;;;;;;;-148.88;97.20;77924.78;5063958;28;20036;-80
2023/03/28 04:37:04;;;;;;;13.73;2.00;;;;;;;-148.88;98.21;77947.16;5081618;28;20043;-80
2023/03/28 04:42:00;;;;;;;10.02;1.55;;;;;;;-148.88;99.25;77977.63;5072044;28;20060;-77
2023/03/28 04:44:27;;;;;;;5.97;1.63;;;;;;;-148.88;100.00;77973.56;5072417;28;20057;-77
2023/03/28 04:46:53;;;;;;;8.90;1.80;;;;;;;-148.88;100.00;77987.78;5073453;28;20032;-77
2023/03/28 04:49:20;;;;;;;6.50;1.70;;;;;;;-148.88;100.00;77983.72;5073663;28;20041;-78
2023/03/28 04:54:12;;;;;;;6.07;1.67;;;;;;;-148.88;100.00;78000.00;5035032;28;20412;-77
2023/03/28 04:56:38;;;;;;;4.75;1.77;;;;;;;-148.88;100.00;77991.84;5037681;28;20475;-77
2023/03/28 04:59:03;;;;;;;7.38;1.70;;;;;;;-148.88;100.00;77997.97;5019777;28;20464;-76
2023/03/28 05:01:29;;;;;;;6.35;1.55;;;;;;;-148.88;100.00;78004.06;5037729;28;20021;-78
2023/03/28 05:03:54;;;;;;;5.97;1.90;;;;;;;-148.88;100.00;78008.13;5037623;28;20017;-77
2023/03/28 05:06:20;;;;;;;11.32;2.30;;;;;;;-148.88;100.00;78012.19;5019789;28;20031;-77
2023/03/28 05:08:46;;;;;;;7.63;1.98;;;;;;;-148.88;100.00;78034.53;5036590;28;20377;-77
2023/03/28 05:11:11;;;;;;;8.18;2.40;;;;;;;-148.88;100.00;78044.69;5036651;28;20119;-78
2023/03/28 05:13:36;;;;;;;4.90;1.30;;;;;;;-148.88;100.00;78034.53;5037190;28;20026;-76
2023/03/28 05:16:02;;;;;;;9.82;1.92;;;;;;;-148.88;100.00;78048.78;5036587;28;20061;-77
2023/03/28 05:18:27;;;;;;;5.90;1.40;;;;;;;-148.88;100.00;78038.59;5020507;28;20052;-77
2023/03/28 05:20:56;;;;;;;6.38;1.65;;;;;;;-148.88;100.00;78040.63;5037640;28;20104;-77
2023/03/28 05:23:21;;;;;;;8.90;1.60;;;;;;;-148.88;100.00;78038.59;5036277;28;20025;-77
2023/03/28 05:25:53;;;;;;;8.07;1.58;;;;;;;-148.88;100.00;78048.78;5036341;28;20182;-76
2023/03/28 05:28:19;;;;;;;6.10;1.83;;;;;;;-148.88;100.00;78060.97;5036280;28;20021;-77
2023/03/28 05:30:45;;;;;;;4.30;1.30;;;;;;;-148.88;100.00;78048.78;5036033;28;20040;-77
2023/03/28 05:33:11;;;;;;;10.55;2.05;;;;;;;-148.88;100.00;78050.81;5035922;28;20021;-77
2023/03/28 05:35:36;;;;;;;10.88;1.60;;;;;;;-148.88;100.00;78060.97;5035902;28;20040;-77
2023/03/28 05:38:03;;;;;;;5.90;1.42;;;;;;;-148.88;100.00;78056.91;5035852;28;20056;-77
2023/03/28 05:40:28;;;;;;;12.85;2.00;;;;;;;-148.88;100.00;78063.00;5017928;28;20072;-77
2023/03/28 05:42:53;;;;;;;14.30;1.85;;;;;;;-148.88;100.00;78067.06;5035663;28;20052;-77
2023/03/28 05:45:20;;;;;;;6.60;1.70;;;;;;;-148.88;100.00;78071.13;5035906;28;20021;-77
2023/03/28 05:47:45;;;;;;;10.25;2.00;;;;;;;-148.88;100.00;78056.91;5018237;28;20116;-77
2023/03/28 05:50:10;;;;;;;4.45;1.40;;;;;;;-148.88;100.00;78069.09;5035942;28;20064;-76
2023/03/28 05:52:36;;;;;;;9.38;2.28;;;;;;;-148.88;100.00;78056.91;5036103;28;20025;-77
2023/03/28 05:55:02;;;;;;;10.63;1.65;;;;;;;-148.88;100.00;78063.00;5035994;28;20088;-77
2023/03/28 05:57:27;;;;;;;9.43;2.30;;;;;;;-148.88;100.00;78067.06;5018225;28;20017;-77
2023/03/28 05:59:52;;;;;;;11.57;2.38;;;;;;;-148.88;100.00;78060.97;5035799;28;20021;-77
2023/03/28 06:02:20;;;;;;;5.93;1.58;;;;;;;-148.88;100.00;78052.84;5018336;28;20021;-77
2023/03/28 06:04:45;;;;;;;4.30;1.83;;;;;;;-148.88;100.00;78060.97;5016319;28;20075;-77
2023/03/28 06:07:12;;;;;;;5.75;1.73;;;;;;;-148.88;100.00;78054.88;5035433;28;20025;-77
2023/03/28 06:09:40;;;;;;;7.65;1.67;;;;;;;-148.88;100.00;78063.00;5017864;28;20025;-77
2023/03/28 06:12:05;;;;;;;13.60;1.88;;;;;;;-148.88;100.00;78067.06;5017947;28;20028;-77
2023/03/28 06:14:31;;;;;;;5.72;1.77;;;;;;;-148.88;100.00;78048.78;5035625;28;20017;-77
2023/03/28 06:16:57;;;;;;;7.15;1.50;;;;;;;-148.88;100.00;78048.78;5017790;28;20407;-77
2023/03/28 06:19:22;;;;;;;9.15;2.00;;;;;;;-148.88;100.00;78048.78;5035452;28;20512;-78
2023/03/28 06:21:48;;;;;;;12.52;2.10;;;;;;;-148.88;100.00;78056.91;5035552;28;20030;-77
2023/03/28 06:24:14;;;;;;;6.97;1.67;;;;;;;-148.88;100.00;78071.13;5035640;28;20392;-77
2023/03/28 06:26:39;;;;;;;11.45;2.03;;;;;;;-148.88;100.00;78046.72;5035737;28;20028;-77
2023/03/28 06:29:05;;;;;;;9.50;2.17;;;;;;;-148.88;100.00;78056.91;5017433;28;20044;-77
2023/03/28 06:31:31;;;;;;;10.05;2.75;;;;;;;-148.88;100.00;78063.00;5017446;28;20033;-77
2023/03/28 06:33:57;;;;;;;9.18;2.90;;;;;;;-148.88;100.00;78044.69;5017221;28;20020;-77
2023/03/28 06:36:22;;;;;;;8.43;2.47;;;;;;;-148.88;100.00;78044.69;5035396;28;20029;-77
2023/03/28 06:38:49;;;;;;;9.15;1.90;;;;;;;-148.88;100.00;78028.44;5017068;28;20104;-77
2023/03/28 06:41:15;;;;;;;9.55;1.98;;;;;;;-148.88;100.00;78028.44;5035150;28;20029;-77
2023/03/28 06:43:40;;;;;;;9.10;1.88;;;;;;;-148.88;100.00;78042.66;5034798;28;20500;-77
2023/03/28 06:46:06;;;;;;;7.28;2.10;;;;;;;-148.88;100.00;78024.38;5034721;28;20026;-77
2023/03/28 06:48:31;;;;;;;8.63;1.90;;;;;;;-148.88;100.00;78024.38;5034561;28;20021;-77
2023/03/28 06:50:57;;;;;;;8.02;2.20;;;;;;;-148.88;100.00;78014.22;5034760;28;20112;-77
2023/03/28 06:53:22;;;;;;;8.68;2.30;;;;;;;-148.88;100.00;78006.09;5034343;28;20033;-77
2023/03/28 06:55:50;;;;;;;13.80;2.17;;;;;;;-148.88;100.00;77979.66;5034630;28;20171;-77
2023/03/28 06:58:15;;;;;;;6.43;1.95;;;;;;;-148.88;100.00;77965.44;5034285;28;20480;-77
2023/03/28 07:00:41;;;;;;;10.35;1.90;;;;;;;-148.88;100.00;77955.28;5016591;28;20032;-77
2023/03/28 07:03:06;;;;;;;8.25;2.47;;;;;;;-148.88;100.00;77939.03;5016794;28;20028;-77
2023/03/28 07:05:37;;;;;;;8.00;2.25;;;;;;;-148.88;100.00;77914.63;5034218;28;20117;-77
2023/03/28 07:08:02;;;;;;;5.68;1.92;;;;;;;-148.88;100.00;77900.41;5034141;28;20040;-77
2023/03/28 07:10:28;;;;;;;4.50;1.65;;;;;;;-148.88;100.00;77886.19;5034167;28;20388;-77
2023/03/28 07:12:53;;;;;;;5.95;1.60;;;;;;;-148.88;100.00;77878.06;5034564;28;20026;-77
2023/03/28 07:15:18;;;;;;;11.32;2.88;;;;;;;-148.88;100.00;77855.69;5034274;28;20396;-77
2023/03/28 07:17:44;;;;;;;11.65;1.67;;;;;;;-148.88;100.00;77841.47;5015885;28;20022;-77
2023/03/28 07:20:09;;;;;;;8.52;1.75;;;;;;;-148.88;100.00;77841.47;5033902;28;20033;-77
2023/03/28 07:22:35;;;;;;;8.13;1.83;;;;;;;-148.88;100.00;77821.16;5016107;28;20022;-77
2023/03/28 07:25:00;;;;;;;13.75;1.65;;;;;;;-148.88;100.00;77813.03;5033771;28;20025;-77
2023/03/28 07:27:25;;;;;;;7.82;2.17;;;;;;;-148.88;100.00;77800.81;5033771;28;20021;-77
2023/03/28 07:29:51;;;;;;;11.25;2.20;;;;;;;-148.88;100.00;77772.38;5033916;28;20503;-77
2023/03/28 07:32:16;;;;;;;9.63;2.67;;;;;;;-148.88;99.27;77788.63;5033745;28;20025;-77
2023/03/28 07:34:42;;;;;;;7.55;1.60;;;;;;;-148.88;98.96;77768.31;5033716;28;20400;-77
2023/03/28 07:37:08;;;;;;;8.25;2.58;;;;;;;-148.88;98.46;77764.25;5016053;28;20025;-77
2023/03/28 07:39:38;;;;;;;6.82;1.20;;;;;;;-148.88;98.79;77752.06;5033872;28;20026;-76
2023/03/28 07:42:04;;;;;;;5.25;1.20;;;;;;;-148.88;98.63;77752.06;5015984;28;20090;-77
2023/03/28 07:44:29;;;;;;;8.85;1.70;;;;;;;-148.88;98.31;77752.06;5015821;28;20547;-77
2023/03/28 07:46:54;;;;;;;7.15;1.60;;;;;;;-148.88;97.95;77780.50;5033694;28;20108;-77
2023/03/28 07:49:20;;;;;;;7.55;2.00;;;;;;;-148.88;98.78;77764.25;5015457;28;20032;-77
2023/03/28 07:51:46;;;;;;;9.15;2.45;;;;;;;-148.88;98.65;77760.19;5033575;28;20025;-77
2023/03/28 07:54:16;;;;;;;10.93;2.08;;;;;;;-148.88;98.14;77756.13;5033121;28;20021;-77
2023/03/28 07:56:44;;;;;;;6.25;1.55;;;;;;;-148.88;97.32;77735.78;5016024;28;20085;-77
2023/03/28 07:59:12;;;;;;;8.13;2.08;;;;;;;-148.88;97.22;77731.72;5015331;28;20025;-77
2023/03/28 08:01:37;;;;;;;8.90;1.90;;;;;;;-148.88;96.07;77699.22;5033238;28;20127;-77
2023/03/28 08:04:03;;;;;;;9.40;2.60;;;;;;;-148.88;94.77;77703.28;5033151;28;20377;-77
2023/03/28 08:06:32;;;;;;;8.77;1.65;;;;;;;-148.88;94.68;77691.09;5033105;28;20464;-77
2023/03/28 08:08:58;;;;;;;4.07;1.85;;;;;;;-148.88;95.33;77672.78;5032966;28;20021;-77
2023/03/28 08:11:24;;;;;;;9.35;1.63;;;;;;;-148.88;94.67;77662.63;5032962;28;20032;-77
2023/03/28 08:13:49;;;;;;;11.48;1.50;;;;;;;-148.88;95.07;77656.53;5015250;28;20083;-77
2023/03/28 08:16:14;;;;;;;7.18;1.80;;;;;;;-148.88;94.43;77642.31;5015601;28;20029;-77
2023/03/28 08:18:39;;;;;;;7.22;1.75;;;;;;;-148.88;94.52;77619.97;5032829;28;20033;-77
2023/03/28 08:21:07;;;;;;;6.13;1.70;;;;;;;-148.88;93.37;77607.78;5033780;28;20111;-77
2023/03/28 08:23:32;;;;;;;9.70;1.70;;;;;;;-148.88;92.95;77609.81;5035882;28;20026;-77
2023/03/28 08:26:03;;;;;;;7.95;1.75;;;;;;;-148.88;93.48;77609.81;5017358;28;20029;-77
2023/03/28 08:28:30;;;;;;;7.43;1.92;;;;;;;-148.88;93.21;77597.59;5034720;28;20025;-77
2023/03/28 08:30:56;;;;;;;7.28;2.70;;;;;;;-148.88;93.19;77569.16;5016786;28;20029;-78
2023/03/28 08:33:21;;;;;;;6.68;2.65;;;;;;;-148.88;91.07;77585.41;5016783;28;20032;-78
2023/03/28 08:35:47;;;;;;;4.82;1.63;;;;;;;-148.88;91.93;77561.03;5034624;28;20461;-77
2023/03/28 08:38:12;;;;;;;6.45;1.60;;;;;;;-148.88;91.19;77565.09;5017166;28;20025;-77
2023/03/28 08:40:43;;;;;;;7.30;1.88;;;;;;;-148.88;91.03;77561.03;5017026;28;20033;-77
2023/03/28 08:43:46;;;;;;;8.20;1.50;;;;;;;-148.88;89.92;77573.22;5034772;28;20021;-77
2023/03/28 08:46:15;;;;;;;6.80;1.60;;;;;;;-148.88;90.95;77544.78;5034866;28;20025;-77
2023/03/28 08:48:43;;;;;;;13.40;1.92;;;;;;;-148.88;89.29;77516.31;5034480;28;20068;-78
2023/03/28 08:51:31;;;;;;;6.65;1.55;;;;;;;-148.88;87.80;77518.34;5034448;28;20029;-77
2023/03/28 08:54:20;;;;;;;7.43;1.80;;;;;;;-148.88;86.96;77514.28;5035220;28;20436;-77
2023/03/28 08:56:56;;;;;;;9.13;1.50;;;;;;;-148.88;85.32;77500.06;5035033;28;20417;-77
2023/03/28 08:59:25;;;;;;;3.70;1.30;;;;;;;-148.88;86.99;77483.81;5016135;28;20025;-77
2023/03/28 09:01:51;;;;;;;10.65;1.83;;;;;;;-148.88;84.85;77451.28;5033585;28;20511;-77
2023/03/28 09:04:30;;;;;;;8.73;1.60;;;;;;;-148.88;84.29;77483.81;5032533;28;20053;-77
2023/03/28 09:07:38;;;;;;;6.40;2.22;;;;;;;-148.88;80.65;77465.53;5032736;28;20056;-77
2023/03/28 09:10:35;;;;;;;9.52;1.65;;;;;;;-148.88;83.38;77430.97;5014807;28;20029;-77
2023/03/28 09:13:26;;;;;;;6.85;1.20;;;;;;;-148.88;75.50;77412.69;5014446;28;20079;-77
2023/03/28 09:16:42;;;;;;;5.85;0.90;;;;;;;-148.88;76.27;77406.59;5025472;28;20041;-77
2023/03/28 09:19:26;;;;;;;9.20;1.48;;;;;;;-148.88;73.46;77378.16;4955306;28;20033;-77
2023/03/28 09:22:18;;;;;;;7.07;0.82;;;;;;;-148.88;71.83;77337.50;4971601;28;20481;-77
2023/03/28 09:25:20;;;;;;;5.95;1.35;;;;;;;-148.88;69.37;77307.03;5017440;28;20033;-77
2023/03/28 09:28:05;;;;;;;7.55;1.20;;;;;;;-148.88;66.37;77276.53;5032826;28;20508;-77
2023/03/28 09:30:43;;;;;;;7.15;1.40;;;;;;;-148.88;66.47;77268.41;5032319;28;20029;-76
2023/03/28 09:33:27;;;;;;;3.83;0.95;;;;;;;-148.88;66.04;77276.53;5014373;28;20026;-77
2023/03/28 09:35:56;;;;;;;10.43;1.20;;;;;;;-148.88;65.08;77231.84;5032153;28;20504;-76
2023/03/28 09:38:28;;;;;;;4.63;1.30;;;;;;;-148.88;65.21;77270.44;5032054;28;20021;-76
2023/03/28 09:41:02;;;;;;;7.38;1.00;;;;;;;-148.88;63.97;77227.78;5018641;28;20099;-79
2023/03/28 09:43:39;;;;;;;9.60;1.20;;;;;;;-148.88;61.32;77229.81;5003034;28;20025;-77
2023/03/28 09:46:10;;;;;;;7.78;2.00;;;;;;;-148.88;64.10;77239.97;5037442;28;20030;-77
2023/03/28 09:48:37;;;;;;;8.63;1.52;;;;;;;-148.88;64.45;77235.91;5037633;28;20037;-77
2023/03/28 09:51:05;;;;;;;4.85;1.23;;;;;;;-148.88;63.77;77252.16;5037943;28;20056;-78
2023/03/28 09:53:36;;;;;;;6.65;1.73;;;;;;;-148.88;64.95;77294.84;5003085;28;20484;-77
2023/03/28 09:56:06;;;;;;;5.82;1.67;;;;;;;-148.88;65.28;77223.72;5019376;28;20120;-77
2023/03/28 09:58:52;;;;;;;6.70;1.42;;;;;;;-148.88;62.13;77250.13;5019487;28;20025;-77
2023/03/28 10:01:37;;;;;;;9.93;1.50;;;;;;;-148.88;60.30;77227.78;5037052;28;20109;-77
2023/03/28 10:04:12;;;;;;;6.60;1.35;;;;;;;-148.88;57.28;77252.16;5037016;28;20037;-77
2023/03/28 10:06:39;;;;;;;8.20;1.10;;;;;;;-148.88;59.83;77191.19;5019973;28;20048;-77
2023/03/28 10:09:26;;;;;;;8.80;1.73;;;;;;;-148.88;58.54;77179.00;5036948;28;20022;-77
2023/03/28 10:12:00;;;;;;;4.18;1.23;;;;;;;-148.88;57.01;77215.59;5019044;28;20026;-77
2023/03/28 10:14:35;;;;;;;6.85;0.90;;;;;;;-148.88;57.86;77150.56;5036879;28;20029;-77
2023/03/28 10:17:10;;;;;;;4.25;1.00;;;;;;;-148.88;56.47;77146.50;5036646;28;20022;-77
2023/03/28 10:19:39;;;;;;;6.90;1.27;;;;;;;-148.88;57.89;77207.47;5036640;28;20072;-77
2023/03/28 10:22:07;;;;;;;3.90;1.10;;;;;;;-148.88;59.78;77217.63;5036805;28;20022;-77
2023/03/28 10:24:33;;;;;;;4.25;1.08;;;;;;;-148.88;58.75;77219.66;5036523;28;20467;-78
2023/03/28 10:27:07;;;;;;;7.00;1.00;;;;;;;-148.88;60.21;77229.81;5037262;28;20210;-78
2023/03/28 10:29:32;;;;;;;6.45;1.38;;;;;;;-148.88;61.37;77278.56;5037906;28;20031;-78
2023/03/28 10:31:58;;;;;;;5.40;1.33;;;;;;;-148.88;61.03;77278.56;5019193;28;20029;-78
2023/03/28 10:34:26;;;;;;;3.88;1.33;;;;;;;-148.88;62.63;77309.06;5020159;28;20052;-78
2023/03/28 10:36:52;;;;;;;7.53;1.42;;;;;;;-148.88;61.64;77272.47;5021728;28;20079;-77
2023/03/28 10:39:28;;;;;;;4.68;1.27;;;;;;;-148.88;61.73;77292.81;5038711;28;20029;-77
2023/03/28 10:41:56;;;;;;;6.28;2.08;;;;;;;-148.88;61.28;77254.19;5038194;28;20025;-77
2023/03/28 10:44:35;;;;;;;2.83;1.15;;;;;;;-148.88;58.57;77221.69;5037955;28;20022;-77
2023/03/28 10:47:04;;;;;;;5.30;1.70;;;;;;;-148.88;58.82;77270.44;5038249;28;20049;-77
2023/03/28 10:49:39;;;;;;;6.78;1.25;;;;;;;-148.88;61.01;77280.59;5037458;28;20120;-77
2023/03/28 10:52:21;;;;;;;9.80;1.80;;;;;;;-148.88;63.69;77280.59;5017906;28;20388;-77
2023/03/28 10:55:05;;;;;;;10.98;1.80;;;;;;;-148.88;65.01;77305.00;5036787;28;20444;-78
2023/03/28 10:57:42;;;;;;;7.47;1.70;;;;;;;-148.88;66.94;77311.09;5036934;28;20052;-77
2023/03/28 11:00:18;;;;;;;6.45;1.35;;;;;;;-148.88;66.17;77323.28;5035830;28;20036;-77
2023/03/28 11:02:52;;;;;;;4.72;1.42;;;;;;;-148.88;65.33;77345.63;5016895;28;20029;-77
2023/03/28 11:05:27;;;;;;;10.20;1.52;;;;;;;-148.88;65.19;77333.44;5034914;28;20029;-77
2023/03/28 11:08:01;;;;;;;7.28;1.10;;;;;;;-148.88;63.90;77329.38;5017227;28;20029;-77
2023/03/28 11:10:55;;;;;;;5.22;1.55;;;;;;;-148.88;65.70;77315.16;5035051;28;20022;-77
2023/03/28 11:13:33;;;;;;;4.72;1.17;;;;;;;-148.88;60.70;77239.97;5035833;28;20033;-77
2023/03/28 11:16:07;;;;;;;4.60;1.48;;;;;;;-148.88;59.55;77199.31;5036190;28;20044;-77
2023/03/28 11:18:35;;;;;;;9.40;1.25;;;;;;;-148.88;60.57;77140.41;5037107;28;20144;-77
2023/03/28 11:21:14;;;;;;;7.25;1.25;;;;;;;-148.88;57.00;77095.69;5037056;28;20041;-77
2023/03/28 11:23:52;;;;;;;5.22;1.08;;;;;;;-148.88;57.69;77116.03;5019051;28;20043;-77
2023/03/28 11:26:29;;;;;;;4.97;1.15;;;;;;;-148.88;58.17;77126.19;5036465;28;20025;-78
2023/03/28 11:29:07;;;;;;;4.75;0.90;;;;;;;-148.88;57.51;77166.81;5036060;28;20021;-77
2023/03/28 11:31:44;;;;;;;7.95;1.95;;;;;;;-148.88;58.60;77136.34;5018255;28;20063;-78
2023/03/28 11:34:21;;;;;;;3.97;1.30;;;;;;;-148.88;54.38;77170.88;5035738;28;20412;-77
2023/03/28 11:37:01;;;;;;;7.57;1.42;;;;;;;-148.88;55.46;77197.28;5035797;28;20021;-78
2023/03/28 11:39:41;;;;;;;4.65;1.00;;;;;;;-148.88;57.37;77235.91;5035427;28;20439;-77